Yellowstone Airport
KWYS : rendu visible

Aérodrome :











RETROUVEZ-NOUS SUR...

 
LOGIN :

S'inscrire | Disclaimer

   EN    FR    IT 

 









Légende :    VFR   VFR Marginal   IFR   IFR Intensif   IFR Très Intensif
Visi : 
Plafond : 
>= 8 km
>= 3000ft
5 à 8 km
1000 à 3000 ft
1500m à 5 km
500 à 1000 ft
800 à 1500m
200 à 500 ft
< 800m
< 200 ft
Symboles :   Orages  Brouillard  Fortes neiges  Fortes précipitations  Vent > 20 kt






- Altitude de l'aérodrome : 6649 ft


KWYS - Yellowstone

DERNIER METAR :
  • 290910Z AUTO 20004KT 10SM FEW003 SCT021 BKN032 M02/M03 A2999 RMK AO2

METARs EXPIRÉS :
  • 290845Z AUTO 23006KT 5SM -UP FEW022 FEW034 BKN055 M02/M03 A2999 RMK AO2
  • 290830Z AUTO 21007KT 10SM FEW022 SCT035 BKN075 M03/M04 A2999 RMK AO2
  • 290810Z AUTO 22007KT 10SM FEW017 SCT060 BKN070 M02/M04 A2999 RMK AO2
  • 290750Z AUTO VRB06KT 10SM SCT018 BKN032 OVC060 M02/M03 A2999 RMK AO2
  • 290730Z AUTO 00000KT 7SM -SN SCT018 BKN060 OVC070 M02/M03 A2999 RMK AO2
  • 290710Z AUTO VRB05KT 10SM FEW014 BKN024 OVC070 M02/M03 A2999 RMK AO2
  • 290645Z AUTO 00000KT 4SM -SN FEW004 SCT011 OVC065 M02/M03 A3000 RMK AO2

TAF KWYS
Valide du 29 à 06h jusqu'au 30 à 06h UTC


290534Z 2906/3006 23006KT P6SM OVC060
TEMPO 2909/2913 BKN025 OVC060



MET'MAP, la Météo Aéronautique d'un coup d'oeil ! - Copyright ORBIFLY Décembre 2007 - Disclaimer

ORBIFLY MET'MAP TEAM :

Programmation & Développement : Alexandra Zaïnal
Sur une idée originale de : Baudouin d'Aumeries
Assistance à la programmation : Marc-Olivier Méhu
Soutien technique & logistique : Manuel Goepfert

Contact : metmap@orbifly.com




SOURCES & CREDITS :

   NOAA       Earth
Advisory